Terminal Aerodrome Forecast
Issued by NWS

Current Version | Previous Version | Text Only | Print | Product List | Glossary On
Versions: 1 2 3 4 5 6 7 8 9 10 11 12 13 14 15 16 17 18
530
FTUS41 KILN 220539
TAFLCK
TAF
KLCK 220539Z 2206/2306 17004KT P6SM VCSH BKN080 OVC120
      TEMPO 2206/2207 -SHRA
     FM220800 10003KT P6SM SCT080 OVC140
     FM221700 07007KT P6SM OVC060
     FM222200 05009KT 3SM -SHRA BR OVC012=

USA.gov is the U.S. government's official web portal to all federal, state and local government web resources and services.